sensor_id;sensor_type;location;lat;lon;timestamp;temperature;humidity
9265;DHT22;4669;49.594;10.958;2023-04-25T04:26:48;9.60;99.90
9265;DHT22;4669;49.594;10.958;2023-04-25T04:32:07;9.40;99.90
9265;DHT22;4669;49.594;10.958;2023-04-25T04:37:11;9.40;99.90
9265;DHT22;4669;49.594;10.958;2023-04-25T04:42:16;9.30;99.90
9265;DHT22;4669;49.594;10.958;2023-04-25T04:47:28;9.30;99.90
9265;DHT22;4669;49.594;10.958;2023-04-25T04:52:52;9.20;99.90
9265;DHT22;4669;49.594;10.958;2023-04-25T04:58:13;9.10;99.90
9265;DHT22;4669;49.594;10.958;2023-04-25T05:03:37;9.20;99.90
9265;DHT22;4669;49.594;10.958;2023-04-25T05:08:46;9.30;99.90
9265;DHT22;4669;49.594;10.958;2023-04-25T05:14:21;9.40;99.90
9265;DHT22;4669;49.594;10.958;2023-04-25T05:19:59;9.30;99.90
9265;DHT22;4669;49.594;10.958;2023-04-25T05:25:20;9.40;99.90
9265;DHT22;4669;49.594;10.958;2023-04-25T05:30:43;9.30;99.90
9265;DHT22;4669;49.594;10.958;2023-04-25T05:35:51;9.30;99.90
9265;DHT22;4669;49.594;10.958;2023-04-25T05:40:53;9.40;99.90
9265;DHT22;4669;49.594;10.958;2023-04-25T05:46:17;9.50;99.90
9265;DHT22;4669;49.594;10.958;2023-04-25T05:51:37;9.30;99.90
9265;DHT22;4669;49.594;10.958;2023-04-25T05:57:03;9.30;99.90
9265;DHT22;4669;49.594;10.958;2023-04-25T06:02:06;9.20;99.90
9265;DHT22;4669;49.594;10.958;2023-04-25T06:07:12;9.20;99.90
9265;DHT22;4669;49.594;10.958;2023-04-25T06:12:14;9.30;99.90
9265;DHT22;4669;49.594;10.958;2023-04-25T06:17:17;9.30;99.90
9265;DHT22;4669;49.594;10.958;2023-04-25T06:22:19;9.20;99.90
9265;DHT22;4669;49.594;10.958;2023-04-25T06:27:22;9.30;99.90
9265;DHT22;4669;49.594;10.958;2023-04-25T06:32:25;9.40;99.90
9265;DHT22;4669;49.594;10.958;2023-04-25T06:37:32;9.50;99.90
9265;DHT22;4669;49.594;10.958;2023-04-25T06:42:34;9.50;99.90
9265;DHT22;4669;49.594;10.958;2023-04-25T06:47:57;9.60;99.90
9265;DHT22;4669;49.594;10.958;2023-04-25T06:52:59;9.50;99.90
9265;DHT22;4669;49.594;10.958;2023-04-25T06:58:03;9.20;99.90
9265;DHT22;4669;49.594;10.958;2023-04-25T07:03:27;9.00;99.90
9265;DHT22;4669;49.594;10.958;2023-04-25T07:08:36;8.80;99.90
9265;DHT22;4669;49.594;10.958;2023-04-25T07:13:38;8.80;99.90
9265;DHT22;4669;49.594;10.958;2023-04-25T07:18:41;8.80;99.90
9265;DHT22;4669;49.594;10.958;2023-04-25T07:23:44;8.70;99.90
9265;DHT22;4669;49.594;10.958;2023-04-25T07:28:51;8.70;99.90
9265;DHT22;4669;49.594;10.958;2023-04-25T07:33:54;8.80;99.90
9265;DHT22;4669;49.594;10.958;2023-04-25T07:38:56;8.80;99.90
9265;DHT22;4669;49.594;10.958;2023-04-25T07:43:58;8.90;99.90
9265;DHT22;4669;49.594;10.958;2023-04-25T07:49:02;9.00;99.90
9265;DHT22;4669;49.594;10.958;2023-04-25T07:54:04;9.10;99.90
9265;DHT22;4669;49.594;10.958;2023-04-25T07:59:09;9.30;99.90
9265;DHT22;4669;49.594;10.958;2023-04-25T08:04:14;9.20;99.90
9265;DHT22;4669;49.594;10.958;2023-04-25T08:09:27;9.20;99.90
9265;DHT22;4669;49.594;10.958;2023-04-25T08:14:31;9.40;99.90
9265;DHT22;4669;49.594;10.958;2023-04-25T08:19:38;9.60;99.90
9265;DHT22;4669;49.594;10.958;2023-04-25T08:24:44;9.50;99.90
9265;DHT22;4669;49.594;10.958;2023-04-25T08:29:46;9.50;99.90
9265;DHT22;4669;49.594;10.958;2023-04-25T08:34:51;9.40;99.90
9265;DHT22;4669;49.594;10.958;2023-04-25T08:39:55;9.50;99.90
9265;DHT22;4669;49.594;10.958;2023-04-25T08:45:01;9.40;99.90
9265;DHT22;4669;49.594;10.958;2023-04-25T08:50:09;9.40;99.90
9265;DHT22;4669;49.594;10.958;2023-04-25T08:55:12;9.30;99.90
9265;DHT22;4669;49.594;10.958;2023-04-25T09:00:15;9.30;99.90
9265;DHT22;4669;49.594;10.958;2023-04-25T09:05:22;9.50;99.90
9265;DHT22;4669;49.594;10.958;2023-04-25T09:10:27;9.60;99.90
9265;DHT22;4669;49.594;10.958;2023-04-25T09:15:32;9.70;99.90
9265;DHT22;4669;49.594;10.958;2023-04-25T09:20:53;9.60;99.90
9265;DHT22;4669;49.594;10.958;2023-04-25T09:25:55;9.80;99.90
9265;DHT22;4669;49.594;10.958;2023-04-25T09:30:58;9.90;99.90
9265;DHT22;4669;49.594;10.958;2023-04-25T09:36:13;10.00;99.90
9265;DHT22;4669;49.594;10.958;2023-04-25T09:41:37;10.40;99.90
9265;DHT22;4669;49.594;10.958;2023-04-25T09:46:40;10.80;99.90
9265;DHT22;4669;49.594;10.958;2023-04-25T09:51:55;11.00;98.40
9265;DHT22;4669;49.594;10.958;2023-04-25T09:57:05;11.10;96.50
9265;DHT22;4669;49.594;10.958;2023-04-25T10:02:11;11.10;96.40
9265;DHT22;4669;49.594;10.958;2023-04-25T10:07:16;11.30;97.10
9265;DHT22;4669;49.594;10.958;2023-04-25T10:12:19;11.20;95.70
9265;DHT22;4669;49.594;10.958;2023-04-25T10:17:22;11.10;95.60
9265;DHT22;4669;49.594;10.958;2023-04-25T10:22:31;11.10;96.00
9265;DHT22;4669;49.594;10.958;2023-04-25T10:27:34;11.30;95.40
9265;DHT22;4669;49.594;10.958;2023-04-25T10:32:37;11.30;95.40
9265;DHT22;4669;49.594;10.958;2023-04-25T10:37:59;11.30;96.00
9265;DHT22;4669;49.594;10.958;2023-04-25T10:43:36;11.40;96.00
9265;DHT22;4669;49.594;10.958;2023-04-25T10:48:45;11.70;94.50
9265;DHT22;4669;49.594;10.958;2023-04-25T10:53:58;11.80;94.20
9265;DHT22;4669;49.594;10.958;2023-04-25T10:59:05;11.80;95.40
9265;DHT22;4669;49.594;10.958;2023-04-25T11:04:19;11.60;95.80
9265;DHT22;4669;49.594;10.958;2023-04-25T11:09:25;11.40;96.30
9265;DHT22;4669;49.594;10.958;2023-04-25T11:14:27;11.50;95.90
9265;DHT22;4669;49.594;10.958;2023-04-25T11:19:29;11.50;95.60
9265;DHT22;4669;49.594;10.958;2023-04-25T11:24:33;11.50;94.90
9265;DHT22;4669;49.594;10.958;2023-04-25T11:29:37;11.60;95.50
9265;DHT22;4669;49.594;10.958;2023-04-25T11:34:39;11.80;94.50
9265;DHT22;4669;49.594;10.958;2023-04-25T11:39:45;12.00;93.70
9265;DHT22;4669;49.594;10.958;2023-04-25T11:44:48;11.80;93.40
9265;DHT22;4669;49.594;10.958;2023-04-25T11:49:53;11.50;94.10
9265;DHT22;4669;49.594;10.958;2023-04-25T11:54:57;11.40;93.80
9265;DHT22;4669;49.594;10.958;2023-04-25T12:00:09;11.40;94.40
9265;DHT22;4669;49.594;10.958;2023-04-25T12:05:15;11.50;93.80
9265;DHT22;4669;49.594;10.958;2023-04-25T12:10:19;11.50;94.00
9265;DHT22;4669;49.594;10.958;2023-04-25T12:15:24;11.70;94.20
9265;DHT22;4669;49.594;10.958;2023-04-25T12:20:26;11.70;93.50
9265;DHT22;4669;49.594;10.958;2023-04-25T12:25:37;11.80;93.20
9265;DHT22;4669;49.594;10.958;2023-04-25T12:30:53;11.60;93.30
9265;DHT22;4669;49.594;10.958;2023-04-25T12:35:56;11.50;93.60
9265;DHT22;4669;49.594;10.958;2023-04-25T12:41:00;11.70;93.80
9265;DHT22;4669;49.594;10.958;2023-04-25T12:46:02;11.80;93.80
9265;DHT22;4669;49.594;10.958;2023-04-25T12:51:04;12.00;93.60
9265;DHT22;4669;49.594;10.958;2023-04-25T12:56:08;11.90;93.90
9265;DHT22;4669;49.594;10.958;2023-04-25T13:01:10;12.10;93.70
9265;DHT22;4669;49.594;10.958;2023-04-25T13:06:13;12.60;92.40
9265;DHT22;4669;49.594;10.958;2023-04-25T13:11:16;12.20;92.60
9265;DHT22;4669;49.594;10.958;2023-04-25T13:16:18;11.90;93.20
9265;DHT22;4669;49.594;10.958;2023-04-25T13:21:21;11.80;93.20
9265;DHT22;4669;49.594;10.958;2023-04-25T13:26:25;11.50;93.50
9265;DHT22;4669;49.594;10.958;2023-04-25T13:31:27;11.50;94.00
9265;DHT22;4669;49.594;10.958;2023-04-25T13:36:29;11.50;94.40
9265;DHT22;4669;49.594;10.958;2023-04-25T13:41:33;11.80;93.90
9265;DHT22;4669;49.594;10.958;2023-04-25T13:46:35;11.80;94.00
9265;DHT22;4669;49.594;10.958;2023-04-25T13:51:38;11.90;93.70
9265;DHT22;4669;49.594;10.958;2023-04-25T13:56:41;11.90;93.30
9265;DHT22;4669;49.594;10.958;2023-04-25T14:01:43;11.80;93.50
9265;DHT22;4669;49.594;10.958;2023-04-25T14:06:45;11.60;93.80
9265;DHT22;4669;49.594;10.958;2023-04-25T14:11:49;11.50;94.00
9265;DHT22;4669;49.594;10.958;2023-04-25T14:16:51;11.30;94.60
9265;DHT22;4669;49.594;10.958;2023-04-25T14:21:54;11.30;95.10
9265;DHT22;4669;49.594;10.958;2023-04-25T14:26:58;11.40;95.10
9265;DHT22;4669;49.594;10.958;2023-04-25T14:32:00;11.40;94.40
9265;DHT22;4669;49.594;10.958;2023-04-25T14:37:02;11.40;94.30
9265;DHT22;4669;49.594;10.958;2023-04-25T14:42:06;11.50;94.30
9265;DHT22;4669;49.594;10.958;2023-04-25T14:47:08;11.40;93.80
9265;DHT22;4669;49.594;10.958;2023-04-25T14:52:10;11.40;94.50
9265;DHT22;4669;49.594;10.958;2023-04-25T14:57:13;11.30;94.40
9265;DHT22;4669;49.594;10.958;2023-04-25T15:02:16;11.40;94.80
9265;DHT22;4669;49.594;10.958;2023-04-25T15:07:18;11.40;94.10
9265;DHT22;4669;49.594;10.958;2023-04-25T15:12:21;11.20;94.10
9265;DHT22;4669;49.594;10.958;2023-04-25T15:17:23;11.20;94.90
9265;DHT22;4669;49.594;10.958;2023-04-25T15:22:25;11.20;94.50
9265;DHT22;4669;49.594;10.958;2023-04-25T15:27:29;11.20;94.20
9265;DHT22;4669;49.594;10.958;2023-04-25T15:32:31;11.30;94.20
9265;DHT22;4669;49.594;10.958;2023-04-25T15:37:33;11.40;94.20
9265;DHT22;4669;49.594;10.958;2023-04-25T15:42:37;11.60;94.30
9265;DHT22;4669;49.594;10.958;2023-04-25T15:47:40;11.60;94.30
9265;DHT22;4669;49.594;10.958;2023-04-25T15:52:42;11.80;94.30
9265;DHT22;4669;49.594;10.958;2023-04-25T15:57:46;11.70;94.40
9265;DHT22;4669;49.594;10.958;2023-04-25T16:02:48;11.60;93.70
9265;DHT22;4669;49.594;10.958;2023-04-25T16:07:50;11.40;94.40
9265;DHT22;4669;49.594;10.958;2023-04-25T16:12:54;11.20;94.60
9265;DHT22;4669;49.594;10.958;2023-04-25T16:17:56;11.10;95.00
9265;DHT22;4669;49.594;10.958;2023-04-25T16:22:59;11.00;95.30
9265;DHT22;4669;49.594;10.958;2023-04-25T16:28:02;11.00;95.10
9265;DHT22;4669;49.594;10.958;2023-04-25T16:33:04;10.90;95.40
9265;DHT22;4669;49.594;10.958;2023-04-25T16:38:06;11.00;95.50
9265;DHT22;4669;49.594;10.958;2023-04-25T16:43:10;11.00;96.00
9265;DHT22;4669;49.594;10.958;2023-04-25T16:48:12;11.00;95.70
9265;DHT22;4669;49.594;10.958;2023-04-25T16:53:14;11.00;95.70
9265;DHT22;4669;49.594;10.958;2023-04-25T16:58:17;11.00;96.00
9265;DHT22;4669;49.594;10.958;2023-04-25T17:03:20;11.10;96.00
9265;DHT22;4669;49.594;10.958;2023-04-25T17:08:22;11.30;95.70
9265;DHT22;4669;49.594;10.958;2023-04-25T17:13:25;11.20;95.40
9265;DHT22;4669;49.594;10.958;2023-04-25T17:18:27;11.10;95.20
9265;DHT22;4669;49.594;10.958;2023-04-25T17:23:29;11.00;95.30
9265;DHT22;4669;49.594;10.958;2023-04-25T17:28:33;10.80;94.90
9265;DHT22;4669;49.594;10.958;2023-04-25T17:33:35;10.60;95.40
9265;DHT22;4669;49.594;10.958;2023-04-25T17:38:37;10.50;95.40
9265;DHT22;4669;49.594;10.958;2023-04-25T17:43:40;10.40;95.10
9265;DHT22;4669;49.594;10.958;2023-04-25T17:48:43;10.40;95.20
9265;DHT22;4669;49.594;10.958;2023-04-25T17:53:45;10.30;95.10
9265;DHT22;4669;49.594;10.958;2023-04-25T17:58:48;10.20;95.20
9265;DHT22;4669;49.594;10.958;2023-04-25T18:03:50;10.20;95.40
9265;DHT22;4669;49.594;10.958;2023-04-25T18:08:52;10.10;95.40
9265;DHT22;4669;49.594;10.958;2023-04-25T18:13:58;10.10;95.30
9265;DHT22;4669;49.594;10.958;2023-04-25T18:19:00;10.10;95.30
9265;DHT22;4669;49.594;10.958;2023-04-25T18:24:06;10.10;95.30
9265;DHT22;4669;49.594;10.958;2023-04-25T18:29:11;10.10;95.40
9265;DHT22;4669;49.594;10.958;2023-04-25T18:34:14;10.10;95.50
9265;DHT22;4669;49.594;10.958;2023-04-25T18:39:16;10.10;95.80
9265;DHT22;4669;49.594;10.958;2023-04-25T18:44:19;10.10;95.90
9265;DHT22;4669;49.594;10.958;2023-04-25T18:49:21;10.10;95.90
9265;DHT22;4669;49.594;10.958;2023-04-25T18:54:23;10.10;96.20
9265;DHT22;4669;49.594;10.958;2023-04-25T18:59:27;10.10;96.30
9265;DHT22;4669;49.594;10.958;2023-04-25T19:04:29;10.10;96.30
9265;DHT22;4669;49.594;10.958;2023-04-25T19:09:31;10.00;96.30
9265;DHT22;4669;49.594;10.958;2023-04-25T19:14:35;10.00;96.60
9265;DHT22;4669;49.594;10.958;2023-04-25T19:19:37;10.00;96.60
9265;DHT22;4669;49.594;10.958;2023-04-25T19:24:39;10.00;96.80
9265;DHT22;4669;49.594;10.958;2023-04-25T19:29:42;10.00;96.50
9265;DHT22;4669;49.594;10.958;2023-04-25T19:34:47;10.00;96.50
9265;DHT22;4669;49.594;10.958;2023-04-25T19:39:49;10.00;95.30
9265;DHT22;4669;49.594;10.958;2023-04-25T19:44:53;10.00;94.60
9265;DHT22;4669;49.594;10.958;2023-04-25T19:49:55;9.90;94.80
9265;DHT22;4669;49.594;10.958;2023-04-25T19:54:57;9.80;94.40
9265;DHT22;4669;49.594;10.958;2023-04-25T20:00:05;9.80;94.50
9265;DHT22;4669;49.594;10.958;2023-04-25T20:05:14;9.80;94.50
9265;DHT22;4669;49.594;10.958;2023-04-25T20:10:17;9.60;94.40
9265;DHT22;4669;49.594;10.958;2023-04-25T20:15:21;9.50;94.60
9265;DHT22;4669;49.594;10.958;2023-04-25T20:20:23;9.50;94.80
9265;DHT22;4669;49.594;10.958;2023-04-25T20:25:25;9.40;95.00
9265;DHT22;4669;49.594;10.958;2023-04-25T20:30:28;9.30;95.20
9265;DHT22;4669;49.594;10.958;2023-04-25T20:35:30;9.20;95.50
9265;DHT22;4669;49.594;10.958;2023-04-25T20:40:32;9.20;96.00
9265;DHT22;4669;49.594;10.958;2023-04-25T20:45:36;9.20;95.90
9265;DHT22;4669;49.594;10.958;2023-04-25T20:50:38;9.30;95.80
9265;DHT22;4669;49.594;10.958;2023-04-25T20:55:40;9.20;95.60
9265;DHT22;4669;49.594;10.958;2023-04-25T21:00:43;9.20;95.70
9265;DHT22;4669;49.594;10.958;2023-04-25T21:05:46;9.20;96.10
9265;DHT22;4669;49.594;10.958;2023-04-25T21:10:49;9.20;96.30
9265;DHT22;4669;49.594;10.958;2023-04-25T21:15:52;9.20;96.10
9265;DHT22;4669;49.594;10.958;2023-04-25T21:20:54;9.30;96.00
9265;DHT22;4669;49.594;10.958;2023-04-25T21:25:56;9.30;95.80
9265;DHT22;4669;49.594;10.958;2023-04-25T21:30:59;9.30;95.70
9265;DHT22;4669;49.594;10.958;2023-04-25T21:36:02;9.30;95.90
9265;DHT22;4669;49.594;10.958;2023-04-25T21:41:04;9.30;95.80
9265;DHT22;4669;49.594;10.958;2023-04-25T21:46:07;9.30;95.80
9265;DHT22;4669;49.594;10.958;2023-04-25T21:51:09;9.30;95.70
9265;DHT22;4669;49.594;10.958;2023-04-25T21:56:11;9.20;95.80
